sensor_id;sensor_type;location;lat;lon;timestamp;P1;durP1;ratioP1;P2;durP2;ratioP2
57746;SDS011;43580;44.014;20.466;2022-12-10T00:01:08;11.40;;;4.93;;
57746;SDS011;43580;44.014;20.466;2022-12-10T00:03:34;10.45;;;4.10;;
57746;SDS011;43580;44.014;20.466;2022-12-10T00:06:01;13.32;;;3.10;;
57746;SDS011;43580;44.014;20.466;2022-12-10T00:08:27;9.50;;;3.22;;
57746;SDS011;43580;44.014;20.466;2022-12-10T00:10:53;10.77;;;3.65;;
57746;SDS011;43580;44.014;20.466;2022-12-10T00:13:19;11.73;;;3.38;;
57746;SDS011;43580;44.014;20.466;2022-12-10T00:15:45;11.93;;;3.38;;
57746;SDS011;43580;44.014;20.466;2022-12-10T00:18:11;9.38;;;3.42;;
57746;SDS011;43580;44.014;20.466;2022-12-10T00:20:38;9.68;;;3.25;;
57746;SDS011;43580;44.014;20.466;2022-12-10T00:23:04;13.13;;;3.50;;
57746;SDS011;43580;44.014;20.466;2022-12-10T00:25:31;10.88;;;2.58;;
57746;SDS011;43580;44.014;20.466;2022-12-10T00:28:00;14.13;;;2.60;;
57746;SDS011;43580;44.014;20.466;2022-12-10T00:30:26;10.48;;;2.17;;
57746;SDS011;43580;44.014;20.466;2022-12-10T00:32:52;6.60;;;2.13;;
57746;SDS011;43580;44.014;20.466;2022-12-10T00:35:20;6.80;;;2.20;;
57746;SDS011;43580;44.014;20.466;2022-12-10T00:37:49;7.10;;;2.42;;
57746;SDS011;43580;44.014;20.466;2022-12-10T00:40:15;12.48;;;2.70;;
57746;SDS011;43580;44.014;20.466;2022-12-10T00:42:43;10.80;;;2.40;;
57746;SDS011;43580;44.014;20.466;2022-12-10T00:45:09;11.35;;;2.50;;
57746;SDS011;43580;44.014;20.466;2022-12-10T00:47:35;8.65;;;2.92;;
57746;SDS011;43580;44.014;20.466;2022-12-10T00:50:02;9.15;;;2.67;;
57746;SDS011;43580;44.014;20.466;2022-12-10T00:52:28;9.13;;;2.55;;
57746;SDS011;43580;44.014;20.466;2022-12-10T00:54:54;12.63;;;2.33;;
57746;SDS011;43580;44.014;20.466;2022-12-10T00:57:20;5.22;;;2.58;;
57746;SDS011;43580;44.014;20.466;2022-12-10T00:59:46;7.15;;;2.70;;
57746;SDS011;43580;44.014;20.466;2022-12-10T01:02:12;7.47;;;2.70;;
57746;SDS011;43580;44.014;20.466;2022-12-10T01:04:38;11.65;;;2.78;;
57746;SDS011;43580;44.014;20.466;2022-12-10T01:07:04;7.25;;;2.28;;
57746;SDS011;43580;44.014;20.466;2022-12-10T01:09:31;12.73;;;2.45;;
57746;SDS011;43580;44.014;20.466;2022-12-10T01:11:59;8.98;;;2.70;;
57746;SDS011;43580;44.014;20.466;2022-12-10T01:14:28;6.47;;;2.17;;
57746;SDS011;43580;44.014;20.466;2022-12-10T01:16:55;11.10;;;2.00;;
57746;SDS011;43580;44.014;20.466;2022-12-10T01:19:22;12.55;;;2.70;;
57746;SDS011;43580;44.014;20.466;2022-12-10T01:21:51;7.90;;;2.00;;
57746;SDS011;43580;44.014;20.466;2022-12-10T01:24:18;7.72;;;2.60;;
57746;SDS011;43580;44.014;20.466;2022-12-10T01:26:44;10.38;;;2.70;;
57746;SDS011;43580;44.014;20.466;2022-12-10T01:29:14;11.30;;;2.40;;
57746;SDS011;43580;44.014;20.466;2022-12-10T01:31:40;7.63;;;2.17;;
57746;SDS011;43580;44.014;20.466;2022-12-10T01:34:08;8.40;;;2.10;;
57746;SDS011;43580;44.014;20.466;2022-12-10T01:36:37;8.38;;;1.85;;
57746;SDS011;43580;44.014;20.466;2022-12-10T01:39:04;7.65;;;2.97;;
57746;SDS011;43580;44.014;20.466;2022-12-10T01:41:35;9.15;;;2.42;;
57746;SDS011;43580;44.014;20.466;2022-12-10T01:44:03;8.60;;;1.95;;
57746;SDS011;43580;44.014;20.466;2022-12-10T01:46:33;7.05;;;1.83;;
57746;SDS011;43580;44.014;20.466;2022-12-10T01:49:01;11.50;;;2.10;;
57746;SDS011;43580;44.014;20.466;2022-12-10T01:51:30;8.98;;;2.28;;
57746;SDS011;43580;44.014;20.466;2022-12-10T01:53:56;11.30;;;2.67;;
57746;SDS011;43580;44.014;20.466;2022-12-10T01:56:23;9.93;;;2.25;;
57746;SDS011;43580;44.014;20.466;2022-12-10T01:58:54;11.40;;;2.50;;
57746;SDS011;43580;44.014;20.466;2022-12-10T02:06:48;13.13;;;4.63;;
57746;SDS011;43580;44.014;20.466;2022-12-10T02:09:25;11.15;;;4.72;;
57746;SDS011;43580;44.014;20.466;2022-12-10T02:15:22;17.52;;;3.90;;
57746;SDS011;43580;44.014;20.466;2022-12-10T02:17:18;8.57;;;2.22;;
57746;SDS011;43580;44.014;20.466;2022-12-10T02:19:56;10.45;;;2.30;;
57746;SDS011;43580;44.014;20.466;2022-12-10T02:22:25;11.02;;;2.50;;
57746;SDS011;43580;44.014;20.466;2022-12-10T02:24:51;10.07;;;2.35;;
57746;SDS011;43580;44.014;20.466;2022-12-10T02:27:21;10.07;;;2.17;;
57746;SDS011;43580;44.014;20.466;2022-12-10T02:29:50;10.63;;;2.10;;
57746;SDS011;43580;44.014;20.466;2022-12-10T02:32:19;6.30;;;2.40;;
57746;SDS011;43580;44.014;20.466;2022-12-10T02:34:48;20.27;;;2.45;;
57746;SDS011;43580;44.014;20.466;2022-12-10T02:37:18;5.43;;;2.03;;
57746;SDS011;43580;44.014;20.466;2022-12-10T02:39:45;11.75;;;2.63;;
57746;SDS011;43580;44.014;20.466;2022-12-10T02:42:13;10.13;;;2.17;;
57746;SDS011;43580;44.014;20.466;2022-12-10T02:44:40;10.95;;;2.92;;
57746;SDS011;43580;44.014;20.466;2022-12-10T02:47:08;17.08;;;3.28;;
57746;SDS011;43580;44.014;20.466;2022-12-10T02:49:35;9.05;;;2.58;;
57746;SDS011;43580;44.014;20.466;2022-12-10T02:52:06;12.88;;;2.60;;
57746;SDS011;43580;44.014;20.466;2022-12-10T02:54:42;17.98;;;3.60;;
57746;SDS011;43580;44.014;20.466;2022-12-10T02:57:15;6.78;;;2.03;;
57746;SDS011;43580;44.014;20.466;2022-12-10T02:59:47;10.10;;;2.75;;
57746;SDS011;43580;44.014;20.466;2022-12-10T03:02:16;8.50;;;2.42;;
57746;SDS011;43580;44.014;20.466;2022-12-10T03:04:52;16.50;;;2.72;;
57746;SDS011;43580;44.014;20.466;2022-12-10T03:07:28;15.25;;;3.28;;
57746;SDS011;43580;44.014;20.466;2022-12-10T03:10:00;16.42;;;4.82;;
57746;SDS011;43580;44.014;20.466;2022-12-10T03:12:29;13.45;;;3.20;;
57746;SDS011;43580;44.014;20.466;2022-12-10T03:15:00;15.75;;;4.50;;
57746;SDS011;43580;44.014;20.466;2022-12-10T03:17:27;13.52;;;4.20;;
57746;SDS011;43580;44.014;20.466;2022-12-10T03:19:54;9.32;;;2.70;;
57746;SDS011;43580;44.014;20.466;2022-12-10T03:22:23;22.08;;;6.10;;
57746;SDS011;43580;44.014;20.466;2022-12-10T03:24:49;31.70;;;8.95;;
57746;SDS011;43580;44.014;20.466;2022-12-10T03:27:16;18.17;;;6.07;;
57746;SDS011;43580;44.014;20.466;2022-12-10T03:29:48;16.23;;;5.32;;
57746;SDS011;43580;44.014;20.466;2022-12-10T03:32:15;15.02;;;6.78;;
57746;SDS011;43580;44.014;20.466;2022-12-10T03:34:42;10.40;;;3.65;;
57746;SDS011;43580;44.014;20.466;2022-12-10T03:37:09;15.20;;;3.75;;
57746;SDS011;43580;44.014;20.466;2022-12-10T03:39:35;7.53;;;2.58;;
57746;SDS011;43580;44.014;20.466;2022-12-10T03:42:03;6.63;;;2.50;;
57746;SDS011;43580;44.014;20.466;2022-12-10T03:44:30;13.38;;;3.05;;
57746;SDS011;43580;44.014;20.466;2022-12-10T03:46:59;13.70;;;7.25;;
57746;SDS011;43580;44.014;20.466;2022-12-10T03:49:25;13.18;;;3.47;;
57746;SDS011;43580;44.014;20.466;2022-12-10T03:51:56;10.48;;;3.47;;
57746;SDS011;43580;44.014;20.466;2022-12-10T03:54:24;12.05;;;4.43;;
57746;SDS011;43580;44.014;20.466;2022-12-10T03:56:50;39.75;;;15.90;;
57746;SDS011;43580;44.014;20.466;2022-12-10T03:59:16;35.70;;;19.88;;
57746;SDS011;43580;44.014;20.466;2022-12-10T04:01:42;14.93;;;6.22;;
57746;SDS011;43580;44.014;20.466;2022-12-10T04:04:09;12.00;;;3.42;;
57746;SDS011;43580;44.014;20.466;2022-12-10T04:06:36;22.73;;;6.95;;
57746;SDS011;43580;44.014;20.466;2022-12-10T04:09:03;15.10;;;3.63;;
57746;SDS011;43580;44.014;20.466;2022-12-10T04:11:29;21.80;;;7.65;;
57746;SDS011;43580;44.014;20.466;2022-12-10T04:13:55;25.77;;;9.10;;
57746;SDS011;43580;44.014;20.466;2022-12-10T04:16:40;15.90;;;5.83;;
57746;SDS011;43580;44.014;20.466;2022-12-10T04:19:07;24.05;;;8.90;;
57746;SDS011;43580;44.014;20.466;2022-12-10T04:21:34;15.27;;;6.28;;
57746;SDS011;43580;44.014;20.466;2022-12-10T04:24:21;10.23;;;4.45;;
57746;SDS011;43580;44.014;20.466;2022-12-10T04:27:10;12.05;;;4.70;;
57746;SDS011;43580;44.014;20.466;2022-12-10T04:29:37;16.00;;;5.95;;
57746;SDS011;43580;44.014;20.466;2022-12-10T04:32:03;18.48;;;5.90;;
57746;SDS011;43580;44.014;20.466;2022-12-10T04:34:29;11.95;;;3.90;;
57746;SDS011;43580;44.014;20.466;2022-12-10T04:36:56;11.75;;;4.55;;
57746;SDS011;43580;44.014;20.466;2022-12-10T04:39:23;12.23;;;3.40;;
57746;SDS011;43580;44.014;20.466;2022-12-10T04:41:49;8.95;;;3.55;;
57746;SDS011;43580;44.014;20.466;2022-12-10T04:44:20;13.23;;;4.40;;
57746;SDS011;43580;44.014;20.466;2022-12-10T04:46:46;14.48;;;4.07;;
57746;SDS011;43580;44.014;20.466;2022-12-10T04:49:12;15.75;;;5.00;;
57746;SDS011;43580;44.014;20.466;2022-12-10T04:51:39;12.30;;;4.07;;
57746;SDS011;43580;44.014;20.466;2022-12-10T04:54:05;8.52;;;2.88;;
57746;SDS011;43580;44.014;20.466;2022-12-10T04:56:31;11.15;;;4.43;;
57746;SDS011;43580;44.014;20.466;2022-12-10T04:59:00;18.27;;;8.32;;
57746;SDS011;43580;44.014;20.466;2022-12-10T05:01:26;71.38;;;37.80;;
57746;SDS011;43580;44.014;20.466;2022-12-10T05:03:57;18.90;;;6.97;;
57746;SDS011;43580;44.014;20.466;2022-12-10T05:06:23;29.70;;;13.65;;
57746;SDS011;43580;44.014;20.466;2022-12-10T05:08:50;31.00;;;13.00;;
57746;SDS011;43580;44.014;20.466;2022-12-10T05:11:16;27.08;;;11.23;;
57746;SDS011;43580;44.014;20.466;2022-12-10T05:13:43;21.85;;;9.43;;
57746;SDS011;43580;44.014;20.466;2022-12-10T05:16:09;38.40;;;21.02;;
57746;SDS011;43580;44.014;20.466;2022-12-10T05:18:36;22.85;;;13.13;;
57746;SDS011;43580;44.014;20.466;2022-12-10T05:21:03;18.83;;;9.07;;
57746;SDS011;43580;44.014;20.466;2022-12-10T05:23:30;36.35;;;13.50;;
57746;SDS011;43580;44.014;20.466;2022-12-10T05:26:03;33.25;;;14.45;;
57746;SDS011;43580;44.014;20.466;2022-12-10T05:28:31;42.50;;;17.80;;
57746;SDS011;43580;44.014;20.466;2022-12-10T05:31:00;35.53;;;17.02;;
57746;SDS011;43580;44.014;20.466;2022-12-10T05:33:27;27.83;;;10.55;;
57746;SDS011;43580;44.014;20.466;2022-12-10T05:36:00;22.08;;;9.45;;
57746;SDS011;43580;44.014;20.466;2022-12-10T05:38:27;19.05;;;7.35;;
57746;SDS011;43580;44.014;20.466;2022-12-10T05:40:53;19.25;;;8.50;;
57746;SDS011;43580;44.014;20.466;2022-12-10T05:43:19;30.92;;;11.85;;
57746;SDS011;43580;44.014;20.466;2022-12-10T05:45:46;24.98;;;12.70;;
57746;SDS011;43580;44.014;20.466;2022-12-10T05:48:13;25.20;;;12.82;;
57746;SDS011;43580;44.014;20.466;2022-12-10T05:50:42;43.38;;;23.77;;
57746;SDS011;43580;44.014;20.466;2022-12-10T05:53:08;26.33;;;15.35;;
57746;SDS011;43580;44.014;20.466;2022-12-10T05:55:34;32.25;;;19.20;;
57746;SDS011;43580;44.014;20.466;2022-12-10T05:58:02;26.70;;;13.23;;
57746;SDS011;43580;44.014;20.466;2022-12-10T06:00:28;24.10;;;11.80;;
57746;SDS011;43580;44.014;20.466;2022-12-10T06:02:54;28.67;;;13.02;;
57746;SDS011;43580;44.014;20.466;2022-12-10T06:05:20;36.15;;;16.20;;
57746;SDS011;43580;44.014;20.466;2022-12-10T06:07:47;24.88;;;10.73;;
57746;SDS011;43580;44.014;20.466;2022-12-10T06:10:13;31.00;;;14.60;;
57746;SDS011;43580;44.014;20.466;2022-12-10T06:12:39;23.75;;;11.93;;
57746;SDS011;43580;44.014;20.466;2022-12-10T06:15:05;80.63;;;42.55;;
57746;SDS011;43580;44.014;20.466;2022-12-10T06:17:31;22.92;;;10.27;;
57746;SDS011;43580;44.014;20.466;2022-12-10T06:19:57;20.10;;;10.55;;
57746;SDS011;43580;44.014;20.466;2022-12-10T06:22:23;27.25;;;12.90;;
57746;SDS011;43580;44.014;20.466;2022-12-10T06:24:49;19.45;;;9.52;;
57746;SDS011;43580;44.014;20.466;2022-12-10T06:27:15;22.33;;;11.50;;
57746;SDS011;43580;44.014;20.466;2022-12-10T06:29:42;29.73;;;12.40;;
57746;SDS011;43580;44.014;20.466;2022-12-10T06:32:08;30.67;;;13.65;;
57746;SDS011;43580;44.014;20.466;2022-12-10T06:34:34;34.88;;;17.38;;
57746;SDS011;43580;44.014;20.466;2022-12-10T06:37:00;57.28;;;33.72;;
57746;SDS011;43580;44.014;20.466;2022-12-10T06:39:26;72.38;;;43.58;;
57746;SDS011;43580;44.014;20.466;2022-12-10T06:41:52;45.83;;;24.55;;
57746;SDS011;43580;44.014;20.466;2022-12-10T06:44:18;77.38;;;42.63;;
57746;SDS011;43580;44.014;20.466;2022-12-10T06:46:44;37.92;;;20.15;;
57746;SDS011;43580;44.014;20.466;2022-12-10T06:49:10;24.73;;;13.27;;
57746;SDS011;43580;44.014;20.466;2022-12-10T06:51:36;72.32;;;37.70;;
57746;SDS011;43580;44.014;20.466;2022-12-10T06:54:04;28.15;;;13.63;;
57746;SDS011;43580;44.014;20.466;2022-12-10T06:56:30;35.80;;;17.65;;
57746;SDS011;43580;44.014;20.466;2022-12-10T06:58:56;42.10;;;23.05;;
57746;SDS011;43580;44.014;20.466;2022-12-10T07:01:23;47.67;;;24.35;;
57746;SDS011;43580;44.014;20.466;2022-12-10T07:03:52;43.38;;;19.27;;
57746;SDS011;43580;44.014;20.466;2022-12-10T07:06:19;33.55;;;14.00;;
57746;SDS011;43580;44.014;20.466;2022-12-10T07:08:48;22.20;;;9.15;;
57746;SDS011;43580;44.014;20.466;2022-12-10T07:11:18;14.15;;;6.22;;
57746;SDS011;43580;44.014;20.466;2022-12-10T07:13:45;29.05;;;14.73;;
57746;SDS011;43580;44.014;20.466;2022-12-10T07:16:18;41.95;;;24.38;;
57746;SDS011;43580;44.014;20.466;2022-12-10T07:18:45;43.28;;;22.52;;
57746;SDS011;43580;44.014;20.466;2022-12-10T07:23:40;29.23;;;17.30;;
57746;SDS011;43580;44.014;20.466;2022-12-10T07:26:06;34.25;;;18.42;;
57746;SDS011;43580;44.014;20.466;2022-12-10T07:28:32;40.55;;;22.65;;
57746;SDS011;43580;44.014;20.466;2022-12-10T07:31:02;59.05;;;32.92;;
57746;SDS011;43580;44.014;20.466;2022-12-10T07:33:28;27.73;;;13.60;;
57746;SDS011;43580;44.014;20.466;2022-12-10T07:35:54;47.40;;;31.02;;
57746;SDS011;43580;44.014;20.466;2022-12-10T07:38:21;53.63;;;26.95;;
57746;SDS011;43580;44.014;20.466;2022-12-10T07:40:47;38.90;;;20.58;;
57746;SDS011;43580;44.014;20.466;2022-12-10T07:43:13;54.05;;;30.40;;
57746;SDS011;43580;44.014;20.466;2022-12-10T07:45:42;127.47;;;58.85;;
57746;SDS011;43580;44.014;20.466;2022-12-10T07:48:08;71.68;;;39.47;;
57746;SDS011;43580;44.014;20.466;2022-12-10T07:50:34;35.40;;;20.67;;
57746;SDS011;43580;44.014;20.466;2022-12-10T07:53:01;44.45;;;22.40;;
57746;SDS011;43580;44.014;20.466;2022-12-10T07:55:27;66.03;;;39.22;;
57746;SDS011;43580;44.014;20.466;2022-12-10T07:57:53;34.03;;;18.67;;
57746;SDS011;43580;44.014;20.466;2022-12-10T08:00:19;31.20;;;16.30;;
57746;SDS011;43580;44.014;20.466;2022-12-10T08:02:45;21.65;;;10.20;;
57746;SDS011;43580;44.014;20.466;2022-12-10T08:05:11;31.83;;;17.83;;
57746;SDS011;43580;44.014;20.466;2022-12-10T08:07:37;32.88;;;20.80;;
57746;SDS011;43580;44.014;20.466;2022-12-10T08:10:03;33.67;;;18.50;;
57746;SDS011;43580;44.014;20.466;2022-12-10T08:12:30;32.00;;;17.40;;
57746;SDS011;43580;44.014;20.466;2022-12-10T08:14:56;55.72;;;34.90;;
57746;SDS011;43580;44.014;20.466;2022-12-10T08:17:22;68.30;;;43.30;;
57746;SDS011;43580;44.014;20.466;2022-12-10T08:19:48;62.50;;;37.97;;
57746;SDS011;43580;44.014;20.466;2022-12-10T08:22:15;40.80;;;27.52;;
57746;SDS011;43580;44.014;20.466;2022-12-10T08:24:41;25.33;;;14.13;;
57746;SDS011;43580;44.014;20.466;2022-12-10T08:27:07;28.58;;;14.85;;
57746;SDS011;43580;44.014;20.466;2022-12-10T08:29:33;43.33;;;25.10;;
57746;SDS011;43580;44.014;20.466;2022-12-10T08:31:59;45.70;;;26.13;;
57746;SDS011;43580;44.014;20.466;2022-12-10T08:34:25;64.15;;;39.08;;
57746;SDS011;43580;44.014;20.466;2022-12-10T08:36:51;58.67;;;36.85;;
57746;SDS011;43580;44.014;20.466;2022-12-10T08:39:17;48.53;;;33.58;;
57746;SDS011;43580;44.014;20.466;2022-12-10T08:41:44;40.85;;;24.95;;
57746;SDS011;43580;44.014;20.466;2022-12-10T08:44:10;92.35;;;50.17;;
57746;SDS011;43580;44.014;20.466;2022-12-10T08:46:37;39.78;;;19.33;;
57746;SDS011;43580;44.014;20.466;2022-12-10T08:49:03;23.60;;;12.90;;
57746;SDS011;43580;44.014;20.466;2022-12-10T08:51:29;19.85;;;9.95;;
57746;SDS011;43580;44.014;20.466;2022-12-10T08:53:55;22.60;;;10.68;;
57746;SDS011;43580;44.014;20.466;2022-12-10T08:56:22;21.25;;;8.05;;
57746;SDS011;43580;44.014;20.466;2022-12-10T08:58:48;18.40;;;8.90;;
57746;SDS011;43580;44.014;20.466;2022-12-10T09:01:15;19.05;;;10.07;;
57746;SDS011;43580;44.014;20.466;2022-12-10T09:03:41;21.10;;;9.65;;
57746;SDS011;43580;44.014;20.466;2022-12-10T09:06:12;29.90;;;10.73;;
57746;SDS011;43580;44.014;20.466;2022-12-10T09:08:38;32.25;;;17.90;;
57746;SDS011;43580;44.014;20.466;2022-12-10T09:11:08;30.92;;;16.95;;
57746;SDS011;43580;44.014;20.466;2022-12-10T09:13:34;35.10;;;20.63;;
57746;SDS011;43580;44.014;20.466;2022-12-10T09:16:01;55.65;;;27.90;;
57746;SDS011;43580;44.014;20.466;2022-12-10T09:18:27;42.63;;;21.17;;
57746;SDS011;43580;44.014;20.466;2022-12-10T09:20:53;42.50;;;23.27;;
57746;SDS011;43580;44.014;20.466;2022-12-10T09:23:19;20.67;;;10.18;;
57746;SDS011;43580;44.014;20.466;2022-12-10T09:25:45;18.42;;;8.15;;
57746;SDS011;43580;44.014;20.466;2022-12-10T09:28:11;15.23;;;7.85;;
57746;SDS011;43580;44.014;20.466;2022-12-10T09:30:37;17.17;;;7.57;;
57746;SDS011;43580;44.014;20.466;2022-12-10T09:33:03;10.98;;;5.60;;
57746;SDS011;43580;44.014;20.466;2022-12-10T09:35:29;11.50;;;6.07;;
57746;SDS011;43580;44.014;20.466;2022-12-10T09:37:55;23.15;;;11.07;;
57746;SDS011;43580;44.014;20.466;2022-12-10T09:40:24;15.60;;;6.30;;
57746;SDS011;43580;44.014;20.466;2022-12-10T09:43:28;18.15;;;8.35;;
57746;SDS011;43580;44.014;20.466;2022-12-10T09:46:01;12.85;;;6.13;;
57746;SDS011;43580;44.014;20.466;2022-12-10T09:48:50;11.15;;;4.20;;
57746;SDS011;43580;44.014;20.466;2022-12-10T09:51:24;13.30;;;4.40;;
57746;SDS011;43580;44.014;20.466;2022-12-10T09:53:51;11.15;;;5.38;;
57746;SDS011;43580;44.014;20.466;2022-12-10T09:56:26;12.25;;;6.00;;
57746;SDS011;43580;44.014;20.466;2022-12-10T09:58:52;14.48;;;4.47;;
57746;SDS011;43580;44.014;20.466;2022-12-10T10:01:19;10.40;;;4.45;;
57746;SDS011;43580;44.014;20.466;2022-12-10T10:03:46;13.38;;;5.47;;
57746;SDS011;43580;44.014;20.466;2022-12-10T10:06:15;15.25;;;6.32;;
57746;SDS011;43580;44.014;20.466;2022-12-10T10:08:45;9.82;;;4.90;;
57746;SDS011;43580;44.014;20.466;2022-12-10T10:11:14;16.25;;;6.97;;
57746;SDS011;43580;44.014;20.466;2022-12-10T10:13:47;13.45;;;4.60;;
57746;SDS011;43580;44.014;20.466;2022-12-10T10:21:23;15.38;;;6.45;;
57746;SDS011;43580;44.014;20.466;2022-12-10T10:23:50;17.38;;;5.85;;
57746;SDS011;43580;44.014;20.466;2022-12-10T10:26:16;18.73;;;7.45;;
57746;SDS011;43580;44.014;20.466;2022-12-10T10:28:42;15.82;;;6.63;;
57746;SDS011;43580;44.014;20.466;2022-12-10T10:31:24;14.20;;;5.57;;
57746;SDS011;43580;44.014;20.466;2022-12-10T10:33:51;19.63;;;5.35;;
57746;SDS011;43580;44.014;20.466;2022-12-10T10:36:22;11.93;;;3.90;;
57746;SDS011;43580;44.014;20.466;2022-12-10T10:38:48;21.35;;;6.25;;
57746;SDS011;43580;44.014;20.466;2022-12-10T10:41:14;15.30;;;4.95;;
57746;SDS011;43580;44.014;20.466;2022-12-10T10:43:43;14.93;;;5.28;;
57746;SDS011;43580;44.014;20.466;2022-12-10T10:46:16;13.38;;;4.28;;
57746;SDS011;43580;44.014;20.466;2022-12-10T10:48:45;17.92;;;8.43;;
57746;SDS011;43580;44.014;20.466;2022-12-10T10:53:41;17.77;;;6.57;;
57746;SDS011;43580;44.014;20.466;2022-12-10T10:56:15;16.50;;;6.15;;
57746;SDS011;43580;44.014;20.466;2022-12-10T11:01:46;17.70;;;6.88;;
57746;SDS011;43580;44.014;20.466;2022-12-10T11:04:13;18.27;;;6.10;;
57746;SDS011;43580;44.014;20.466;2022-12-10T11:06:42;17.20;;;7.05;;
57746;SDS011;43580;44.014;20.466;2022-12-10T11:09:14;16.98;;;6.90;;
57746;SDS011;43580;44.014;20.466;2022-12-10T11:14:22;15.65;;;6.05;;
57746;SDS011;43580;44.014;20.466;2022-12-10T11:16:49;15.95;;;6.50;;
57746;SDS011;43580;44.014;20.466;2022-12-10T11:19:19;15.27;;;5.55;;
57746;SDS011;43580;44.014;20.466;2022-12-10T11:21:45;14.18;;;6.72;;
57746;SDS011;43580;44.014;20.466;2022-12-10T11:24:13;15.38;;;7.32;;
57746;SDS011;43580;44.014;20.466;2022-12-10T11:42:05;15.85;;;6.15;;
57746;SDS011;43580;44.014;20.466;2022-12-10T11:47:23;15.93;;;5.00;;
57746;SDS011;43580;44.014;20.466;2022-12-10T11:50:11;15.25;;;6.10;;
57746;SDS011;43580;44.014;20.466;2022-12-10T11:58:27;17.90;;;5.65;;
57746;SDS011;43580;44.014;20.466;2022-12-10T12:01:07;13.85;;;5.72;;
57746;SDS011;43580;44.014;20.466;2022-12-10T12:12:25;11.88;;;4.68;;
57746;SDS011;43580;44.014;20.466;2022-12-10T12:14:36;15.27;;;4.78;;
57746;SDS011;43580;44.014;20.466;2022-12-10T12:19:51;13.60;;;4.40;;
57746;SDS011;43580;44.014;20.466;2022-12-10T12:22:32;12.57;;;3.60;;
57746;SDS011;43580;44.014;20.466;2022-12-10T12:25:17;11.32;;;3.70;;
57746;SDS011;43580;44.014;20.466;2022-12-10T12:27:48;16.55;;;3.80;;
57746;SDS011;43580;44.014;20.466;2022-12-10T12:30:19;17.27;;;4.88;;
57746;SDS011;43580;44.014;20.466;2022-12-10T12:35:36;11.70;;;3.30;;
57746;SDS011;43580;44.014;20.466;2022-12-10T12:40:51;21.98;;;7.93;;
57746;SDS011;43580;44.014;20.466;2022-12-10T12:43:26;16.60;;;5.72;;
57746;SDS011;43580;44.014;20.466;2022-12-10T12:45:54;30.45;;;10.95;;
57746;SDS011;43580;44.014;20.466;2022-12-10T12:48:29;19.15;;;7.35;;
57746;SDS011;43580;44.014;20.466;2022-12-10T12:53:42;31.73;;;9.02;;
57746;SDS011;43580;44.014;20.466;2022-12-10T12:58:59;20.48;;;8.15;;
57746;SDS011;43580;44.014;20.466;2022-12-10T13:03:54;20.02;;;8.32;;
57746;SDS011;43580;44.014;20.466;2022-12-10T13:06:23;20.63;;;8.00;;
57746;SDS011;43580;44.014;20.466;2022-12-10T13:11:19;29.27;;;13.93;;
57746;SDS011;43580;44.014;20.466;2022-12-10T13:30:25;18.90;;;6.85;;
57746;SDS011;43580;44.014;20.466;2022-12-10T13:32:24;26.00;;;6.38;;
57746;SDS011;43580;44.014;20.466;2022-12-10T13:42:37;24.10;;;6.68;;
57746;SDS011;43580;44.014;20.466;2022-12-10T13:47:49;24.05;;;7.05;;
57746;SDS011;43580;44.014;20.466;2022-12-10T13:50:24;21.60;;;6.75;;
57746;SDS011;43580;44.014;20.466;2022-12-10T14:06:21;23.90;;;8.38;;
57746;SDS011;43580;44.014;20.466;2022-12-10T14:09:10;29.08;;;7.18;;
57746;SDS011;43580;44.014;20.466;2022-12-10T14:11:38;22.13;;;5.63;;
57746;SDS011;43580;44.014;20.466;2022-12-10T14:14:06;27.25;;;6.68;;
57746;SDS011;43580;44.014;20.466;2022-12-10T14:16:36;26.20;;;6.93;;
57746;SDS011;43580;44.014;20.466;2022-12-10T14:19:04;26.45;;;7.05;;
57746;SDS011;43580;44.014;20.466;2022-12-10T14:21:31;21.15;;;5.63;;
57746;SDS011;43580;44.014;20.466;2022-12-10T14:23:58;25.25;;;8.40;;
57746;SDS011;43580;44.014;20.466;2022-12-10T14:26:31;19.40;;;6.32;;
57746;SDS011;43580;44.014;20.466;2022-12-10T14:28:59;15.70;;;5.47;;
57746;SDS011;43580;44.014;20.466;2022-12-10T14:31:35;18.90;;;6.00;;
57746;SDS011;43580;44.014;20.466;2022-12-10T14:34:03;23.58;;;7.55;;
57746;SDS011;43580;44.014;20.466;2022-12-10T14:36:31;26.23;;;14.57;;
57746;SDS011;43580;44.014;20.466;2022-12-10T14:38:58;19.52;;;8.40;;
57746;SDS011;43580;44.014;20.466;2022-12-10T14:41:24;21.45;;;9.00;;
57746;SDS011;43580;44.014;20.466;2022-12-10T14:43:52;27.67;;;12.40;;
57746;SDS011;43580;44.014;20.466;2022-12-10T14:46:19;23.15;;;8.35;;
57746;SDS011;43580;44.014;20.466;2022-12-10T14:48:48;37.55;;;15.10;;
57746;SDS011;43580;44.014;20.466;2022-12-10T14:51:16;22.67;;;9.35;;
57746;SDS011;43580;44.014;20.466;2022-12-10T14:53:44;31.33;;;13.98;;
57746;SDS011;43580;44.014;20.466;2022-12-10T14:56:11;27.52;;;13.38;;
57746;SDS011;43580;44.014;20.466;2022-12-10T14:58:55;33.67;;;17.98;;
57746;SDS011;43580;44.014;20.466;2022-12-10T15:01:28;26.88;;;10.15;;
57746;SDS011;43580;44.014;20.466;2022-12-10T15:03:55;26.60;;;7.82;;
57746;SDS011;43580;44.014;20.466;2022-12-10T15:06:22;17.90;;;7.50;;
57746;SDS011;43580;44.014;20.466;2022-12-10T15:08:48;24.02;;;8.60;;
57746;SDS011;43580;44.014;20.466;2022-12-10T15:11:17;23.25;;;7.65;;
57746;SDS011;43580;44.014;20.466;2022-12-10T15:13:47;16.20;;;6.07;;
57746;SDS011;43580;44.014;20.466;2022-12-10T15:16:20;36.13;;;17.90;;
57746;SDS011;43580;44.014;20.466;2022-12-10T15:18:53;65.13;;;33.67;;
57746;SDS011;43580;44.014;20.466;2022-12-10T15:21:22;38.60;;;16.08;;
57746;SDS011;43580;44.014;20.466;2022-12-10T15:23:49;44.35;;;25.45;;
57746;SDS011;43580;44.014;20.466;2022-12-10T15:26:22;24.80;;;8.80;;
57746;SDS011;43580;44.014;20.466;2022-12-10T15:28:52;41.47;;;21.08;;
57746;SDS011;43580;44.014;20.466;2022-12-10T15:33:57;21.27;;;10.52;;
57746;SDS011;43580;44.014;20.466;2022-12-10T15:38:49;23.60;;;8.15;;
57746;SDS011;43580;44.014;20.466;2022-12-10T15:43:51;39.33;;;18.73;;
57746;SDS011;43580;44.014;20.466;2022-12-10T15:46:20;25.70;;;10.63;;
57746;SDS011;43580;44.014;20.466;2022-12-10T15:48:46;19.67;;;7.95;;
57746;SDS011;43580;44.014;20.466;2022-12-10T15:51:12;17.63;;;6.78;;
57746;SDS011;43580;44.014;20.466;2022-12-10T15:53:39;25.88;;;9.18;;
57746;SDS011;43580;44.014;20.466;2022-12-10T15:56:05;27.15;;;9.50;;
57746;SDS011;43580;44.014;20.466;2022-12-10T15:58:31;26.75;;;9.93;;
57746;SDS011;43580;44.014;20.466;2022-12-10T16:00:57;18.30;;;7.20;;
57746;SDS011;43580;44.014;20.466;2022-12-10T16:03:23;19.83;;;7.82;;
57746;SDS011;43580;44.014;20.466;2022-12-10T16:05:52;21.92;;;7.38;;
57746;SDS011;43580;44.014;20.466;2022-12-10T16:08:21;25.60;;;10.90;;
57746;SDS011;43580;44.014;20.466;2022-12-10T16:10:49;21.00;;;8.55;;
57746;SDS011;43580;44.014;20.466;2022-12-10T16:13:19;28.90;;;12.13;;
57746;SDS011;43580;44.014;20.466;2022-12-10T16:15:50;23.45;;;8.40;;
57746;SDS011;43580;44.014;20.466;2022-12-10T16:18:17;22.85;;;8.75;;
57746;SDS011;43580;44.014;20.466;2022-12-10T16:20:43;30.98;;;11.82;;
57746;SDS011;43580;44.014;20.466;2022-12-10T16:23:09;42.15;;;17.55;;
57746;SDS011;43580;44.014;20.466;2022-12-10T16:25:36;35.83;;;18.60;;
57746;SDS011;43580;44.014;20.466;2022-12-10T16:28:15;25.92;;;8.70;;